METAR Data
IDs: Format: Raw Decoded Include TAF

Data at: 2056 UTC 01 Dec 2021

LZPP 012030Z AUTO 13008KT 9999 -RA 07/03 Q1000 REUP